Archival Weather

Phoenix Deer Valley

Phoenix, Arizona (KDVT)

Report from: Monday, August 15, 2022 2:53 PM MST
Current time: Saturday, July 13, 2024 7:17 PM MST

Current weather – Weather history – Daily summaries
Weather forecast

Temperature36.7°C (98.1°F)
Heat index37.5°C (99.5°F)
Dew point16.7°C (62.1°F)
Winds 10 kts (5.1 m/s, 11.5 mph) Northwest (320°)
Wind gusts 18 kts (9.3 m/s, 20.7 mph)
Visibility10 mi. (16.1 km)
Clouds Sky clear
Altimeter29.80 in.Hg (1009 mB)
Relative humidity31 %
Density altitude2,951 ft. (899 m)
Sea-level pressure100.6 kPa (1006 mB, 29.71 in.Hg)
Remarks Automated weather observing station with precipitation discriminator
Flight conditions Visual Meteorological Conditions
Raw dataKDVT 152153Z 32010G18KT 10SM CLR 37/17 A2980 RMK AO2 SLP062 T03670167
An error has occurred. This application may no longer respond until reloaded. Reload 🗙